sensor_id;sensor_type;location;lat;lon;timestamp;temperature;humidity
40059;SHT31;25763;49.972;8.568;2023-08-24T00:02:00;19.90;76.05
40059;SHT31;25763;49.972;8.568;2023-08-24T00:04:26;19.90;76.08
40059;SHT31;25763;49.972;8.568;2023-08-24T00:06:51;19.90;76.04
40059;SHT31;25763;49.972;8.568;2023-08-24T00:09:17;19.88;76.01
40059;SHT31;25763;49.972;8.568;2023-08-24T00:11:42;19.86;75.84
40059;SHT31;25763;49.972;8.568;2023-08-24T00:14:07;19.84;75.55
40059;SHT31;25763;49.972;8.568;2023-08-24T00:16:33;19.81;75.36
40059;SHT31;25763;49.972;8.568;2023-08-24T00:18:58;19.81;75.33
40059;SHT31;25763;49.972;8.568;2023-08-24T00:21:23;19.80;75.24
40059;SHT31;25763;49.972;8.568;2023-08-24T00:23:50;19.84;75.17
40059;SHT31;25763;49.972;8.568;2023-08-24T00:26:15;19.81;75.08
40059;SHT31;25763;49.972;8.568;2023-08-24T00:28:44;19.70;75.28
40059;SHT31;25763;49.972;8.568;2023-08-24T00:31:09;19.70;75.52
40059;SHT31;25763;49.972;8.568;2023-08-24T00:33:35;19.69;75.78
40059;SHT31;25763;49.972;8.568;2023-08-24T00:36:01;19.58;75.98
40059;SHT31;25763;49.972;8.568;2023-08-24T00:38:27;19.67;75.73
40059;SHT31;25763;49.972;8.568;2023-08-24T00:40:52;19.74;75.88
40059;SHT31;25763;49.972;8.568;2023-08-24T00:43:19;19.59;76.35
40059;SHT31;25763;49.972;8.568;2023-08-24T00:45:50;19.66;76.29
40059;SHT31;25763;49.972;8.568;2023-08-24T00:48:16;19.62;76.25
40059;SHT31;25763;49.972;8.568;2023-08-24T00:50:42;19.52;76.70
40059;SHT31;25763;49.972;8.568;2023-08-24T00:53:07;19.42;77.09
40059;SHT31;25763;49.972;8.568;2023-08-24T00:55:33;19.20;77.73
40059;SHT31;25763;49.972;8.568;2023-08-24T00:57:59;19.12;77.98
40059;SHT31;25763;49.972;8.568;2023-08-24T01:00:24;19.30;77.61
40059;SHT31;25763;49.972;8.568;2023-08-24T01:02:50;19.39;77.33
40059;SHT31;25763;49.972;8.568;2023-08-24T01:05:15;19.44;77.52
40059;SHT31;25763;49.972;8.568;2023-08-24T01:07:41;19.38;77.95
40059;SHT31;25763;49.972;8.568;2023-08-24T01:10:09;19.55;77.20
40059;SHT31;25763;49.972;8.568;2023-08-24T01:15:24;19.61;77.31
40059;SHT31;25763;49.972;8.568;2023-08-24T01:17:52;19.58;77.39
40059;SHT31;25763;49.972;8.568;2023-08-24T01:20:18;19.52;77.84
40059;SHT31;25763;49.972;8.568;2023-08-24T01:23:14;19.51;77.81
40059;SHT31;25763;49.972;8.568;2023-08-24T01:25:49;19.32;78.49
40059;SHT31;25763;49.972;8.568;2023-08-24T01:28:17;19.28;78.61
40059;SHT31;25763;49.972;8.568;2023-08-24T01:30:47;19.20;79.00
40059;SHT31;25763;49.972;8.568;2023-08-24T01:33:13;19.06;79.35
40059;SHT31;25763;49.972;8.568;2023-08-24T01:35:39;18.93;79.68
40059;SHT31;25763;49.972;8.568;2023-08-24T01:38:05;18.77;79.94
40059;SHT31;25763;49.972;8.568;2023-08-24T01:40:42;18.61;80.40
40059;SHT31;25763;49.972;8.568;2023-08-24T01:43:13;18.48;80.99
40059;SHT31;25763;49.972;8.568;2023-08-24T01:45:41;18.43;81.28
40059;SHT31;25763;49.972;8.568;2023-08-24T01:48:07;18.35;81.59
40059;SHT31;25763;49.972;8.568;2023-08-24T01:50:34;18.37;81.91
40059;SHT31;25763;49.972;8.568;2023-08-24T01:53:00;18.33;82.31
40059;SHT31;25763;49.972;8.568;2023-08-24T01:55:26;18.35;82.49
40059;SHT31;25763;49.972;8.568;2023-08-24T01:57:51;18.31;82.73
40059;SHT31;25763;49.972;8.568;2023-08-24T02:00:16;18.30;82.96
40059;SHT31;25763;49.972;8.568;2023-08-24T02:02:42;18.35;82.85
40059;SHT31;25763;49.972;8.568;2023-08-24T02:05:08;18.30;82.97
40059;SHT31;25763;49.972;8.568;2023-08-24T02:07:33;18.37;83.03
40059;SHT31;25763;49.972;8.568;2023-08-24T02:09:58;18.45;82.89
40059;SHT31;25763;49.972;8.568;2023-08-24T02:12:24;18.50;82.91
40059;SHT31;25763;49.972;8.568;2023-08-24T02:14:49;18.50;82.83
40059;SHT31;25763;49.972;8.568;2023-08-24T02:17:14;18.50;82.89
40059;SHT31;25763;49.972;8.568;2023-08-24T02:19:40;18.48;82.88
40059;SHT31;25763;49.972;8.568;2023-08-24T02:22:08;18.50;82.94
40059;SHT31;25763;49.972;8.568;2023-08-24T02:24:34;18.54;82.90
40059;SHT31;25763;49.972;8.568;2023-08-24T02:27:00;18.61;82.79
40059;SHT31;25763;49.972;8.568;2023-08-24T02:29:25;18.71;82.61
40059;SHT31;25763;49.972;8.568;2023-08-24T02:31:50;18.68;82.57
40059;SHT31;25763;49.972;8.568;2023-08-24T02:34:17;18.69;82.40
40059;SHT31;25763;49.972;8.568;2023-08-24T02:36:42;18.73;82.46
40059;SHT31;25763;49.972;8.568;2023-08-24T02:39:08;18.69;82.65
40059;SHT31;25763;49.972;8.568;2023-08-24T02:41:34;18.69;82.63
40059;SHT31;25763;49.972;8.568;2023-08-24T02:44:00;18.68;82.61
40059;SHT31;25763;49.972;8.568;2023-08-24T02:46:25;18.69;82.70
40059;SHT31;25763;49.972;8.568;2023-08-24T02:48:51;18.68;82.68
40059;SHT31;25763;49.972;8.568;2023-08-24T02:51:16;18.75;82.57
40059;SHT31;25763;49.972;8.568;2023-08-24T02:53:41;18.80;82.32
40059;SHT31;25763;49.972;8.568;2023-08-24T02:56:07;18.80;82.32
40059;SHT31;25763;49.972;8.568;2023-08-24T02:58:32;18.82;82.25
40059;SHT31;25763;49.972;8.568;2023-08-24T03:00:57;18.85;82.04
40059;SHT31;25763;49.972;8.568;2023-08-24T03:03:23;18.85;82.06
40059;SHT31;25763;49.972;8.568;2023-08-24T03:06:00;18.80;82.25
40059;SHT31;25763;49.972;8.568;2023-08-24T03:08:26;18.75;82.39
40059;SHT31;25763;49.972;8.568;2023-08-24T03:10:51;18.73;82.53
40059;SHT31;25763;49.972;8.568;2023-08-24T03:13:17;18.77;82.33
40059;SHT31;25763;49.972;8.568;2023-08-24T03:15:42;18.76;82.13
40059;SHT31;25763;49.972;8.568;2023-08-24T03:18:11;18.75;82.30
40059;SHT31;25763;49.972;8.568;2023-08-24T03:20:36;18.76;82.14
40059;SHT31;25763;49.972;8.568;2023-08-24T03:23:02;18.75;82.08
40059;SHT31;25763;49.972;8.568;2023-08-24T03:25:28;18.72;82.17
40059;SHT31;25763;49.972;8.568;2023-08-24T03:27:53;18.73;82.20
40059;SHT31;25763;49.972;8.568;2023-08-24T03:30:20;18.69;82.31
40059;SHT31;25763;49.972;8.568;2023-08-24T03:32:45;18.76;82.24
40059;SHT31;25763;49.972;8.568;2023-08-24T03:35:10;18.79;82.08
40059;SHT31;25763;49.972;8.568;2023-08-24T03:37:36;18.80;81.98
40059;SHT31;25763;49.972;8.568;2023-08-24T03:40:02;18.82;81.94
40059;SHT31;25763;49.972;8.568;2023-08-24T03:42:29;18.75;82.08
40059;SHT31;25763;49.972;8.568;2023-08-24T03:44:54;18.76;82.20
40059;SHT31;25763;49.972;8.568;2023-08-24T03:47:19;18.83;82.02
40059;SHT31;25763;49.972;8.568;2023-08-24T03:49:45;18.92;81.74
40059;SHT31;25763;49.972;8.568;2023-08-24T03:52:10;18.94;81.56
40059;SHT31;25763;49.972;8.568;2023-08-24T03:54:35;18.92;81.45
40059;SHT31;25763;49.972;8.568;2023-08-24T03:57:02;18.93;81.47
40059;SHT31;25763;49.972;8.568;2023-08-24T03:59:27;18.92;81.35
40059;SHT31;25763;49.972;8.568;2023-08-24T04:01:53;19.04;81.06
40059;SHT31;25763;49.972;8.568;2023-08-24T04:04:18;18.96;81.15
40059;SHT31;25763;49.972;8.568;2023-08-24T04:06:44;18.99;81.07
40059;SHT31;25763;49.972;8.568;2023-08-24T04:09:09;18.92;81.10
40059;SHT31;25763;49.972;8.568;2023-08-24T04:11:35;18.86;81.40
40059;SHT31;25763;49.972;8.568;2023-08-24T04:14:00;18.80;81.76
40059;SHT31;25763;49.972;8.568;2023-08-24T04:16:26;18.85;81.58
40059;SHT31;25763;49.972;8.568;2023-08-24T04:18:51;18.89;81.36
40059;SHT31;25763;49.972;8.568;2023-08-24T04:21:17;18.89;81.08
40059;SHT31;25763;49.972;8.568;2023-08-24T04:23:42;18.97;80.83
40059;SHT31;25763;49.972;8.568;2023-08-24T04:26:13;18.96;80.64
40059;SHT31;25763;49.972;8.568;2023-08-24T04:28:39;18.93;80.85
40059;SHT31;25763;49.972;8.568;2023-08-24T04:31:04;18.86;80.92
40059;SHT31;25763;49.972;8.568;2023-08-24T04:33:29;18.85;81.15
40059;SHT31;25763;49.972;8.568;2023-08-24T04:35:55;18.82;81.27
40059;SHT31;25763;49.972;8.568;2023-08-24T04:38:20;18.85;81.40
40059;SHT31;25763;49.972;8.568;2023-08-24T04:40:51;18.89;81.13
40059;SHT31;25763;49.972;8.568;2023-08-24T04:43:17;18.77;81.39
40059;SHT31;25763;49.972;8.568;2023-08-24T04:45:42;18.80;81.41
40059;SHT31;25763;49.972;8.568;2023-08-24T04:48:07;18.80;81.43
40059;SHT31;25763;49.972;8.568;2023-08-24T04:50:33;18.85;80.89
40059;SHT31;25763;49.972;8.568;2023-08-24T04:52:59;19.02;80.72
40059;SHT31;25763;49.972;8.568;2023-08-24T04:55:24;19.10;80.56
40059;SHT31;25763;49.972;8.568;2023-08-24T04:57:49;19.17;80.19
40059;SHT31;25763;49.972;8.568;2023-08-24T05:00:15;19.17;79.89
40059;SHT31;25763;49.972;8.568;2023-08-24T05:02:44;19.27;79.75
40059;SHT31;25763;49.972;8.568;2023-08-24T05:05:10;19.20;79.23
40059;SHT31;25763;49.972;8.568;2023-08-24T05:07:37;19.39;79.37
40059;SHT31;25763;49.972;8.568;2023-08-24T05:10:03;19.44;79.06
40059;SHT31;25763;49.972;8.568;2023-08-24T05:12:29;19.44;78.76
40059;SHT31;25763;49.972;8.568;2023-08-24T05:14:55;19.46;78.68
40059;SHT31;25763;49.972;8.568;2023-08-24T05:17:20;19.52;78.31
40059;SHT31;25763;49.972;8.568;2023-08-24T05:19:50;19.49;77.92
40059;SHT31;25763;49.972;8.568;2023-08-24T05:22:16;19.45;77.51
40059;SHT31;25763;49.972;8.568;2023-08-24T05:24:41;19.52;77.41
40059;SHT31;25763;49.972;8.568;2023-08-24T05:27:07;19.52;77.19
40059;SHT31;25763;49.972;8.568;2023-08-24T05:29:32;19.48;76.96
40059;SHT31;25763;49.972;8.568;2023-08-24T05:31:57;19.58;77.09
40059;SHT31;25763;49.972;8.568;2023-08-24T05:34:23;19.56;77.16
40059;SHT31;25763;49.972;8.568;2023-08-24T05:36:48;19.56;77.62
40059;SHT31;25763;49.972;8.568;2023-08-24T05:39:13;19.62;77.57
40059;SHT31;25763;49.972;8.568;2023-08-24T05:41:39;19.65;77.38
40059;SHT31;25763;49.972;8.568;2023-08-24T05:44:04;19.70;77.23
40059;SHT31;25763;49.972;8.568;2023-08-24T05:46:29;19.81;77.26
40059;SHT31;25763;49.972;8.568;2023-08-24T05:48:55;19.88;77.35
40059;SHT31;25763;49.972;8.568;2023-08-24T05:51:21;20.01;77.72
40059;SHT31;25763;49.972;8.568;2023-08-24T05:53:47;20.11;77.16
40059;SHT31;25763;49.972;8.568;2023-08-24T05:56:12;20.20;76.78
40059;SHT31;25763;49.972;8.568;2023-08-24T05:58:37;20.28;76.47
40059;SHT31;25763;49.972;8.568;2023-08-24T06:01:03;20.32;76.00
40059;SHT31;25763;49.972;8.568;2023-08-24T06:03:28;20.43;75.86
40059;SHT31;25763;49.972;8.568;2023-08-24T06:05:54;20.38;75.45
40059;SHT31;25763;49.972;8.568;2023-08-24T06:08:20;20.12;75.30
40059;SHT31;25763;49.972;8.568;2023-08-24T06:10:45;20.17;75.42
40059;SHT31;25763;49.972;8.568;2023-08-24T06:13:11;20.11;75.26
40059;SHT31;25763;49.972;8.568;2023-08-24T06:15:36;20.05;75.24
40059;SHT31;25763;49.972;8.568;2023-08-24T06:18:01;20.14;75.62
40059;SHT31;25763;49.972;8.568;2023-08-24T06:20:27;20.21;74.87
40059;SHT31;25763;49.972;8.568;2023-08-24T06:22:53;20.31;75.32
40059;SHT31;25763;49.972;8.568;2023-08-24T06:25:19;20.32;74.24
40059;SHT31;25763;49.972;8.568;2023-08-24T06:27:44;20.26;74.26
40059;SHT31;25763;49.972;8.568;2023-08-24T06:30:10;20.29;74.47
40059;SHT31;25763;49.972;8.568;2023-08-24T06:32:35;20.35;75.02
40059;SHT31;25763;49.972;8.568;2023-08-24T06:35:02;20.17;74.94
40059;SHT31;25763;49.972;8.568;2023-08-24T06:37:28;20.04;75.78
40059;SHT31;25763;49.972;8.568;2023-08-24T06:39:54;19.88;77.67
40059;SHT31;25763;49.972;8.568;2023-08-24T06:42:19;19.72;78.69
40059;SHT31;25763;49.972;8.568;2023-08-24T06:44:44;19.56;78.73
40059;SHT31;25763;49.972;8.568;2023-08-24T06:47:10;19.62;79.47
40059;SHT31;25763;49.972;8.568;2023-08-24T06:49:35;19.55;78.90
40059;SHT31;25763;49.972;8.568;2023-08-24T06:52:01;19.79;78.76
40059;SHT31;25763;49.972;8.568;2023-08-24T06:54:26;19.91;77.88
40059;SHT31;25763;49.972;8.568;2023-08-24T06:56:51;20.14;77.74
40059;SHT31;25763;49.972;8.568;2023-08-24T06:59:17;20.26;77.61
40059;SHT31;25763;49.972;8.568;2023-08-24T07:01:42;20.24;76.03
40059;SHT31;25763;49.972;8.568;2023-08-24T07:04:07;20.14;76.72
40059;SHT31;25763;49.972;8.568;2023-08-24T07:06:34;20.10;77.27
40059;SHT31;25763;49.972;8.568;2023-08-24T07:09:02;20.24;77.52
40059;SHT31;25763;49.972;8.568;2023-08-24T07:11:31;20.46;77.60
40059;SHT31;25763;49.972;8.568;2023-08-24T07:13:57;20.50;76.88
40059;SHT31;25763;49.972;8.568;2023-08-24T07:16:22;20.43;76.28
40059;SHT31;25763;49.972;8.568;2023-08-24T07:18:47;20.46;76.64
40059;SHT31;25763;49.972;8.568;2023-08-24T07:21:13;20.63;76.90
40059;SHT31;25763;49.972;8.568;2023-08-24T07:23:40;20.73;76.22
40059;SHT31;25763;49.972;8.568;2023-08-24T07:26:05;20.83;75.90
40059;SHT31;25763;49.972;8.568;2023-08-24T07:28:31;20.99;75.86
40059;SHT31;25763;49.972;8.568;2023-08-24T07:30:56;21.12;76.06
40059;SHT31;25763;49.972;8.568;2023-08-24T07:33:22;21.28;75.97
40059;SHT31;25763;49.972;8.568;2023-08-24T07:35:47;21.24;75.79
40059;SHT31;25763;49.972;8.568;2023-08-24T07:38:13;21.19;76.71
40059;SHT31;25763;49.972;8.568;2023-08-24T07:40:38;21.18;75.95
40059;SHT31;25763;49.972;8.568;2023-08-24T07:43:03;21.29;75.49
40059;SHT31;25763;49.972;8.568;2023-08-24T07:45:29;21.42;75.48
40059;SHT31;25763;49.972;8.568;2023-08-24T07:47:54;21.51;75.46
40059;SHT31;25763;49.972;8.568;2023-08-24T07:50:20;21.53;73.08
40059;SHT31;25763;49.972;8.568;2023-08-24T07:52:47;21.54;73.30
40059;SHT31;25763;49.972;8.568;2023-08-24T07:55:13;21.57;73.93
40059;SHT31;25763;49.972;8.568;2023-08-24T07:57:38;21.53;74.16
40059;SHT31;25763;49.972;8.568;2023-08-24T08:00:05;21.47;74.73
40059;SHT31;25763;49.972;8.568;2023-08-24T08:02:31;21.23;75.19
40059;SHT31;25763;49.972;8.568;2023-08-24T08:04:59;21.06;73.89
40059;SHT31;25763;49.972;8.568;2023-08-24T08:07:26;21.06;74.24
40059;SHT31;25763;49.972;8.568;2023-08-24T08:09:51;21.22;73.92
40059;SHT31;25763;49.972;8.568;2023-08-24T08:12:16;21.28;75.09
40059;SHT31;25763;49.972;8.568;2023-08-24T08:14:42;21.36;74.28
40059;SHT31;25763;49.972;8.568;2023-08-24T08:17:07;21.54;73.27
40059;SHT31;25763;49.972;8.568;2023-08-24T08:19:33;21.67;73.28
40059;SHT31;25763;49.972;8.568;2023-08-24T08:22:01;21.60;71.53
40059;SHT31;25763;49.972;8.568;2023-08-24T08:24:26;21.74;72.20
40059;SHT31;25763;49.972;8.568;2023-08-24T08:26:52;22.24;72.31
40059;SHT31;25763;49.972;8.568;2023-08-24T08:29:18;22.58;70.86
40059;SHT31;25763;49.972;8.568;2023-08-24T09:34:32;25.42;60.34
40059;SHT31;25763;49.972;8.568;2023-08-24T09:37:18;25.74;60.91
40059;SHT31;25763;49.972;8.568;2023-08-24T09:40:06;25.79;60.00
40059;SHT31;25763;49.972;8.568;2023-08-24T09:42:55;25.53;58.57
40059;SHT31;25763;49.972;8.568;2023-08-24T09:45:54;25.76;59.94
40059;SHT31;25763;49.972;8.568;2023-08-24T09:48:41;26.11;59.56
40059;SHT31;25763;49.972;8.568;2023-08-24T09:51:27;26.33;59.52
40059;SHT31;25763;49.972;8.568;2023-08-24T09:54:15;26.24;59.10
40059;SHT31;25763;49.972;8.568;2023-08-24T09:57:02;26.25;57.71
40059;SHT31;25763;49.972;8.568;2023-08-24T09:59:49;26.64;57.94
40059;SHT31;25763;49.972;8.568;2023-08-24T10:02:43;26.81;56.84
40059;SHT31;25763;49.972;8.568;2023-08-24T10:05:32;26.90;57.07
40059;SHT31;25763;49.972;8.568;2023-08-24T10:08:21;26.86;56.06
40059;SHT31;25763;49.972;8.568;2023-08-24T10:11:07;27.14;56.17
40059;SHT31;25763;49.972;8.568;2023-08-24T10:14:00;27.23;55.35
40059;SHT31;25763;49.972;8.568;2023-08-24T10:16:50;27.05;54.40
40059;SHT31;25763;49.972;8.568;2023-08-24T10:19:36;27.27;55.59
40059;SHT31;25763;49.972;8.568;2023-08-24T10:22:22;27.56;55.01
40059;SHT31;25763;49.972;8.568;2023-08-24T10:25:08;27.70;53.78
40059;SHT31;25763;49.972;8.568;2023-08-24T10:27:54;27.61;55.10
40059;SHT31;25763;49.972;8.568;2023-08-24T10:30:41;27.60;54.82
40059;SHT31;25763;49.972;8.568;2023-08-24T10:33:30;27.43;53.26
40059;SHT31;25763;49.972;8.568;2023-08-24T10:36:16;27.49;52.99
40059;SHT31;25763;49.972;8.568;2023-08-24T10:39:03;27.65;52.83
40059;SHT31;25763;49.972;8.568;2023-08-24T10:41:52;27.57;52.96
40059;SHT31;25763;49.972;8.568;2023-08-24T10:44:39;27.80;53.63
40059;SHT31;25763;49.972;8.568;2023-08-24T10:47:26;28.09;53.72
40059;SHT31;25763;49.972;8.568;2023-08-24T10:50:13;28.08;52.54
40059;SHT31;25763;49.972;8.568;2023-08-24T10:52:59;27.93;52.65
40059;SHT31;25763;49.972;8.568;2023-08-24T10:55:45;28.08;52.06
40059;SHT31;25763;49.972;8.568;2023-08-24T10:58:33;27.86;52.79
40059;SHT31;25763;49.972;8.568;2023-08-24T11:01:19;27.99;53.49
40059;SHT31;25763;49.972;8.568;2023-08-24T11:04:07;28.40;53.00
40059;SHT31;25763;49.972;8.568;2023-08-24T11:06:57;28.32;52.75
40059;SHT31;25763;49.972;8.568;2023-08-24T11:09:45;28.19;52.47
40059;SHT31;25763;49.972;8.568;2023-08-24T11:15:54;28.86;51.58
40059;SHT31;25763;49.972;8.568;2023-08-24T11:18:42;29.03;53.17
40059;SHT31;25763;49.972;8.568;2023-08-24T11:21:27;28.93;51.21
40059;SHT31;25763;49.972;8.568;2023-08-24T11:24:14;29.07;52.26
40059;SHT31;25763;49.972;8.568;2023-08-24T11:26:59;29.23;52.03
40059;SHT31;25763;49.972;8.568;2023-08-24T11:29:58;28.85;52.00
40059;SHT31;25763;49.972;8.568;2023-08-24T11:32:43;28.99;51.17
40059;SHT31;25763;49.972;8.568;2023-08-24T11:35:35;29.09;50.28
40059;SHT31;25763;49.972;8.568;2023-08-24T11:38:21;29.22;52.30
40059;SHT31;25763;49.972;8.568;2023-08-24T11:41:17;29.00;51.63
40059;SHT31;25763;49.972;8.568;2023-08-24T11:44:03;28.96;51.64
40059;SHT31;25763;49.972;8.568;2023-08-24T11:46:49;28.88;51.24
40059;SHT31;25763;49.972;8.568;2023-08-24T11:49:35;28.54;52.69
40059;SHT31;25763;49.972;8.568;2023-08-24T11:52:21;28.65;52.04
40059;SHT31;25763;49.972;8.568;2023-08-24T11:55:06;28.58;52.19
40059;SHT31;25763;49.972;8.568;2023-08-24T11:57:54;28.76;52.00
40059;SHT31;25763;49.972;8.568;2023-08-24T12:00:42;28.71;52.68
40059;SHT31;25763;49.972;8.568;2023-08-24T12:03:28;28.81;51.40
40059;SHT31;25763;49.972;8.568;2023-08-24T12:06:15;28.68;52.62
40059;SHT31;25763;49.972;8.568;2023-08-24T12:09:04;28.69;52.76
40059;SHT31;25763;49.972;8.568;2023-08-24T12:11:55;28.88;54.20
40059;SHT31;25763;49.972;8.568;2023-08-24T12:14:44;28.96;53.56
40059;SHT31;25763;49.972;8.568;2023-08-24T12:17:30;28.69;54.77
40059;SHT31;25763;49.972;8.568;2023-08-24T12:20:30;28.91;53.52
40059;SHT31;25763;49.972;8.568;2023-08-24T12:23:15;28.63;53.36
40059;SHT31;25763;49.972;8.568;2023-08-24T12:26:01;28.71;53.65
40059;SHT31;25763;49.972;8.568;2023-08-24T12:28:51;28.72;54.61
40059;SHT31;25763;49.972;8.568;2023-08-24T12:31:42;28.71;54.17
40059;SHT31;25763;49.972;8.568;2023-08-24T12:34:27;28.83;55.24
40059;SHT31;25763;49.972;8.568;2023-08-24T12:37:13;28.91;54.42
40059;SHT31;25763;49.972;8.568;2023-08-24T12:39:59;28.60;53.85
40059;SHT31;25763;49.972;8.568;2023-08-24T12:42:44;28.85;53.19
40059;SHT31;25763;49.972;8.568;2023-08-24T12:45:31;28.95;54.11
40059;SHT31;25763;49.972;8.568;2023-08-24T12:48:16;28.99;53.85
40059;SHT31;25763;49.972;8.568;2023-08-24T12:51:02;28.86;54.58
40059;SHT31;25763;49.972;8.568;2023-08-24T12:53:48;29.14;54.37
40059;SHT31;25763;49.972;8.568;2023-08-24T12:56:34;29.38;53.72
40059;SHT31;25763;49.972;8.568;2023-08-24T12:59:20;29.75;55.43
40059;SHT31;25763;49.972;8.568;2023-08-24T13:02:06;29.86;53.79
40059;SHT31;25763;49.972;8.568;2023-08-24T13:04:52;29.93;52.53
40059;SHT31;25763;49.972;8.568;2023-08-24T13:07:38;29.68;51.41
40059;SHT31;25763;49.972;8.568;2023-08-24T13:10:24;29.44;51.65
40059;SHT31;25763;49.972;8.568;2023-08-24T13:13:10;29.54;52.79
40059;SHT31;25763;49.972;8.568;2023-08-24T13:15:56;29.65;53.50
40059;SHT31;25763;49.972;8.568;2023-08-24T13:18:42;29.92;55.68
40059;SHT31;25763;49.972;8.568;2023-08-24T13:21:28;29.90;54.24
40059;SHT31;25763;49.972;8.568;2023-08-24T13:24:13;30.11;54.08
40059;SHT31;25763;49.972;8.568;2023-08-24T13:26:59;29.72;51.23
40059;SHT31;25763;49.972;8.568;2023-08-24T13:29:45;29.69;52.90
40059;SHT31;25763;49.972;8.568;2023-08-24T13:32:31;29.70;52.38
40059;SHT31;25763;49.972;8.568;2023-08-24T13:35:16;29.31;52.33
40059;SHT31;25763;49.972;8.568;2023-08-24T13:38:02;29.38;52.94
40059;SHT31;25763;49.972;8.568;2023-08-24T13:40:48;29.55;54.60
40059;SHT31;25763;49.972;8.568;2023-08-24T13:43:35;29.72;55.39
40059;SHT31;25763;49.972;8.568;2023-08-24T13:46:20;29.62;54.38
40059;SHT31;25763;49.972;8.568;2023-08-24T13:49:06;29.85;53.10
40059;SHT31;25763;49.972;8.568;2023-08-24T13:51:52;29.94;53.82
40059;SHT31;25763;49.972;8.568;2023-08-24T13:54:37;30.14;53.48
40059;SHT31;25763;49.972;8.568;2023-08-24T13:57:23;30.25;52.35
40059;SHT31;25763;49.972;8.568;2023-08-24T14:00:09;30.25;51.86
40059;SHT31;25763;49.972;8.568;2023-08-24T14:02:55;30.09;52.11
40059;SHT31;25763;49.972;8.568;2023-08-24T14:05:41;29.85;52.35
40059;SHT31;25763;49.972;8.568;2023-08-24T14:08:27;29.86;53.67
40059;SHT31;25763;49.972;8.568;2023-08-24T14:11:13;29.82;53.98
40059;SHT31;25763;49.972;8.568;2023-08-24T14:14:01;29.69;52.43
40059;SHT31;25763;49.972;8.568;2023-08-24T14:16:53;29.51;51.96
40059;SHT31;25763;49.972;8.568;2023-08-24T14:19:39;29.14;51.66
40059;SHT31;25763;49.972;8.568;2023-08-24T14:22:25;29.17;51.80
40059;SHT31;25763;49.972;8.568;2023-08-24T14:25:11;29.29;52.30
40059;SHT31;25763;49.972;8.568;2023-08-24T14:27:56;29.26;52.40
40059;SHT31;25763;49.972;8.568;2023-08-24T14:30:42;29.18;53.48
40059;SHT31;25763;49.972;8.568;2023-08-24T14:33:28;29.27;55.11
40059;SHT31;25763;49.972;8.568;2023-08-24T14:36:13;29.11;54.29
40059;SHT31;25763;49.972;8.568;2023-08-24T14:38:59;28.96;53.98
40059;SHT31;25763;49.972;8.568;2023-08-24T14:41:45;28.86;55.32
40059;SHT31;25763;49.972;8.568;2023-08-24T14:44:30;28.69;55.41
40059;SHT31;25763;49.972;8.568;2023-08-24T14:47:16;28.61;56.09
40059;SHT31;25763;49.972;8.568;2023-08-24T14:50:01;28.52;55.83
40059;SHT31;25763;49.972;8.568;2023-08-24T14:52:47;28.48;56.64
40059;SHT31;25763;49.972;8.568;2023-08-24T14:55:33;28.36;58.10
40059;SHT31;25763;49.972;8.568;2023-08-24T14:58:20;28.19;59.09
40059;SHT31;25763;49.972;8.568;2023-08-24T15:01:06;28.09;58.67
40059;SHT31;25763;49.972;8.568;2023-08-24T15:03:52;27.80;60.24
40059;SHT31;25763;49.972;8.568;2023-08-24T15:06:37;27.64;61.33
40059;SHT31;25763;49.972;8.568;2023-08-24T15:09:23;27.54;61.71
40059;SHT31;25763;49.972;8.568;2023-08-24T15:12:09;27.34;63.34
40059;SHT31;25763;49.972;8.568;2023-08-24T15:14:59;27.02;64.24
40059;SHT31;25763;49.972;8.568;2023-08-24T15:17:45;26.76;65.57
40059;SHT31;25763;49.972;8.568;2023-08-24T15:20:30;26.40;66.41
40059;SHT31;25763;49.972;8.568;2023-08-24T15:23:27;26.31;66.42
40059;SHT31;25763;49.972;8.568;2023-08-24T15:26:13;26.26;65.44
40059;SHT31;25763;49.972;8.568;2023-08-24T15:29:11;26.47;64.77
40059;SHT31;25763;49.972;8.568;2023-08-24T15:31:57;26.64;65.19
40059;SHT31;25763;49.972;8.568;2023-08-24T15:34:43;26.79;64.51
40059;SHT31;25763;49.972;8.568;2023-08-24T15:37:28;26.71;63.63
40059;SHT31;25763;49.972;8.568;2023-08-24T15:40:14;26.79;64.45
40059;SHT31;25763;49.972;8.568;2023-08-24T15:43:00;26.83;62.41
40059;SHT31;25763;49.972;8.568;2023-08-24T15:45:45;26.90;63.80
40059;SHT31;25763;49.972;8.568;2023-08-24T15:48:34;26.84;62.15
40059;SHT31;25763;49.972;8.568;2023-08-24T15:51:19;26.91;62.35
40059;SHT31;25763;49.972;8.568;2023-08-24T15:54:05;27.01;61.96
40059;SHT31;25763;49.972;8.568;2023-08-24T15:56:51;27.08;61.40
40059;SHT31;25763;49.972;8.568;2023-08-24T15:59:37;27.24;63.50
40059;SHT31;25763;49.972;8.568;2023-08-24T16:02:23;27.26;62.51
40059;SHT31;25763;49.972;8.568;2023-08-24T16:05:08;27.24;62.86
40059;SHT31;25763;49.972;8.568;2023-08-24T16:07:54;27.22;62.65
40059;SHT31;25763;49.972;8.568;2023-08-24T16:10:40;27.06;62.39
40059;SHT31;25763;49.972;8.568;2023-08-24T16:13:26;27.05;62.83
40059;SHT31;25763;49.972;8.568;2023-08-24T16:16:12;26.99;63.00
40059;SHT31;25763;49.972;8.568;2023-08-24T16:19:01;26.95;62.82
40059;SHT31;25763;49.972;8.568;2023-08-24T16:21:47;26.97;62.91
40059;SHT31;25763;49.972;8.568;2023-08-24T16:24:33;27.01;62.65
40059;SHT31;25763;49.972;8.568;2023-08-24T16:27:18;26.92;61.86
40059;SHT31;25763;49.972;8.568;2023-08-24T16:30:04;26.94;61.77
40059;SHT31;25763;49.972;8.568;2023-08-24T16:32:50;26.98;61.66
40059;SHT31;25763;49.972;8.568;2023-08-24T16:35:36;26.98;61.19
40059;SHT31;25763;49.972;8.568;2023-08-24T16:38:21;26.98;60.82
40059;SHT31;25763;49.972;8.568;2023-08-24T16:41:07;26.88;60.92
40059;SHT31;25763;49.972;8.568;2023-08-24T16:43:53;26.87;61.10
40059;SHT31;25763;49.972;8.568;2023-08-24T16:46:38;26.88;61.35
40059;SHT31;25763;49.972;8.568;2023-08-24T16:49:24;26.81;61.35
40059;SHT31;25763;49.972;8.568;2023-08-24T16:52:10;26.79;61.46
40059;SHT31;25763;49.972;8.568;2023-08-24T16:54:56;26.77;61.74
40059;SHT31;25763;49.972;8.568;2023-08-24T16:57:41;26.73;61.80
40059;SHT31;25763;49.972;8.568;2023-08-24T17:00:29;26.56;61.82
40059;SHT31;25763;49.972;8.568;2023-08-24T17:03:16;26.54;61.90
40059;SHT31;25763;49.972;8.568;2023-08-24T17:06:02;26.56;62.75
40059;SHT31;25763;49.972;8.568;2023-08-24T17:08:48;26.49;62.88
40059;SHT31;25763;49.972;8.568;2023-08-24T17:11:34;26.50;62.73
40059;SHT31;25763;49.972;8.568;2023-08-24T17:14:19;26.40;62.46
40059;SHT31;25763;49.972;8.568;2023-08-24T17:17:05;26.26;62.37
40059;SHT31;25763;49.972;8.568;2023-08-24T17:19:51;26.09;62.58
40059;SHT31;25763;49.972;8.568;2023-08-24T17:22:36;25.88;62.95
40059;SHT31;25763;49.972;8.568;2023-08-24T17:25:22;25.74;63.58
40059;SHT31;25763;49.972;8.568;2023-08-24T17:28:07;25.58;64.04
40059;SHT31;25763;49.972;8.568;2023-08-24T17:30:53;25.36;64.33